createdAt,value
2022-10-25T00:00:36.442Z,2.60
2022-10-25T00:01:36.526Z,2.40
2022-10-25T00:02:36.441Z,2.60
2022-10-25T00:03:36.446Z,2.60
2022-10-25T00:04:36.522Z,2.50
2022-10-25T00:05:36.495Z,2.70
2022-10-25T00:06:36.400Z,2.60
2022-10-25T00:07:36.438Z,2.60
2022-10-25T00:08:36.362Z,2.60
2022-10-25T00:09:36.392Z,3.30
2022-10-25T00:10:36.371Z,2.60
2022-10-25T00:11:36.371Z,2.70
2022-10-25T00:12:36.366Z,2.60
2022-10-25T00:13:37.365Z,2.80
2022-10-25T00:14:36.313Z,2.70
2022-10-25T00:15:36.337Z,2.80
2022-10-25T00:16:36.313Z,2.80
2022-10-25T00:17:36.301Z,2.60
2022-10-25T00:18:36.306Z,2.70
2022-10-25T00:19:36.283Z,2.80
2022-10-25T00:20:36.339Z,2.40
2022-10-25T00:21:36.318Z,2.80
2022-10-25T00:22:36.271Z,2.50
2022-10-25T00:23:36.263Z,2.70
2022-10-25T00:24:36.287Z,3.30
2022-10-25T00:25:36.261Z,2.60
2022-10-25T00:26:36.238Z,3.40
2022-10-25T00:27:36.234Z,3.00
2022-10-25T00:28:36.232Z,3.00
2022-10-25T00:29:36.251Z,2.60
2022-10-25T00:30:36.261Z,2.90
2022-10-25T00:31:36.250Z,2.70
2022-10-25T00:32:36.198Z,2.60
2022-10-25T00:33:36.172Z,2.70
2022-10-25T00:34:37.162Z,4.00
2022-10-25T00:35:36.189Z,3.10
2022-10-25T00:36:36.143Z,2.80
2022-10-25T00:37:36.197Z,3.60
2022-10-25T00:38:36.126Z,3.40
2022-10-25T00:39:36.111Z,2.90
2022-10-25T00:40:36.114Z,2.90
2022-10-25T00:41:36.127Z,2.60
2022-10-25T00:42:36.108Z,2.80
2022-10-25T00:43:36.099Z,2.80
2022-10-25T00:44:36.102Z,2.70
2022-10-25T00:45:36.078Z,3.00
2022-10-25T00:46:36.077Z,3.10
2022-10-25T00:47:36.110Z,3.00
2022-10-25T00:48:36.100Z,3.30
2022-10-25T00:49:36.098Z,2.70
2022-10-25T00:50:36.065Z,3.20
2022-10-25T00:51:37.072Z,3.30
2022-10-25T00:52:36.035Z,3.20
2022-10-25T00:53:36.087Z,3.00
2022-10-25T00:54:36.034Z,3.00
2022-10-25T00:55:36.021Z,2.70
2022-10-25T00:56:36.013Z,3.10
2022-10-25T00:57:36.009Z,2.70
2022-10-25T00:58:36.021Z,3.10
2022-10-25T00:59:35.969Z,3.00
2022-10-25T01:00:35.960Z,3.20
2022-10-25T01:01:36.039Z,3.00
2022-10-25T01:02:36.016Z,2.90
2022-10-25T01:03:35.999Z,3.20
2022-10-25T01:04:35.978Z,3.50
2022-10-25T01:05:35.927Z,3.20
2022-10-25T01:06:35.937Z,3.30
2022-10-25T01:07:35.907Z,2.50
2022-10-25T01:08:35.939Z,2.80
2022-10-25T01:09:35.937Z,2.70
2022-10-25T01:10:35.944Z,2.70
2022-10-25T01:11:35.906Z,3.30
2022-10-25T01:12:35.899Z,3.20
2022-10-25T01:13:35.864Z,2.90
2022-10-25T01:14:35.885Z,2.70
2022-10-25T01:15:35.869Z,2.70
2022-10-25T01:16:35.837Z,2.50
2022-10-25T01:17:35.865Z,2.90
2022-10-25T01:18:35.843Z,3.10
2022-10-25T01:19:35.862Z,2.80
2022-10-25T01:20:35.837Z,3.10
2022-10-25T01:21:35.809Z,2.70
2022-10-25T01:22:35.814Z,3.00
2022-10-25T01:23:35.791Z,3.10
2022-10-25T01:24:35.787Z,3.00
2022-10-25T01:25:35.821Z,2.70
2022-10-25T01:26:35.766Z,3.20
2022-10-25T01:27:35.779Z,3.00
2022-10-25T01:28:35.762Z,3.10
2022-10-25T01:29:35.774Z,3.30
2022-10-25T01:30:35.892Z,3.10
2022-10-25T01:31:35.944Z,3.00
2022-10-25T01:32:35.892Z,3.10
2022-10-25T01:33:35.732Z,3.00
2022-10-25T01:34:35.967Z,2.80
2022-10-25T01:35:35.871Z,2.70
2022-10-25T01:36:35.747Z,2.90
2022-10-25T01:37:35.746Z,3.10
2022-10-25T01:38:35.849Z,3.00
2022-10-25T01:39:35.776Z,2.90
2022-10-25T01:40:35.774Z,2.60
2022-10-25T01:41:35.838Z,3.20
2022-10-25T01:42:35.880Z,3.40
2022-10-25T01:43:35.747Z,3.00
2022-10-25T01:45:35.770Z,3.30
2022-10-25T01:46:35.733Z,3.00
2022-10-25T01:47:35.839Z,3.00
2022-10-25T01:48:35.826Z,3.30
2022-10-25T01:49:35.825Z,2.60
2022-10-25T01:50:35.687Z,4.00
2022-10-25T01:51:35.576Z,2.80
2022-10-25T01:52:35.767Z,3.10
2022-10-25T01:53:35.794Z,3.20
2022-10-25T01:54:35.742Z,2.60
2022-10-25T01:55:35.833Z,2.80
2022-10-25T01:56:35.842Z,3.00
2022-10-25T01:57:35.614Z,2.80
2022-10-25T01:58:35.644Z,2.90
2022-10-25T01:59:35.776Z,2.80
2022-10-25T02:00:35.545Z,2.50
2022-10-25T02:01:35.671Z,2.60
2022-10-25T02:02:35.476Z,2.70
2022-10-25T02:03:35.604Z,2.70
2022-10-25T02:04:35.557Z,3.40
2022-10-25T02:05:35.513Z,2.80
2022-10-25T02:06:35.674Z,2.70
2022-10-25T02:07:35.448Z,2.90
2022-10-25T02:08:35.579Z,2.80
2022-10-25T02:09:35.442Z,2.50
2022-10-25T02:10:35.559Z,2.80
2022-10-25T02:11:35.666Z,3.20
2022-10-25T02:12:35.591Z,2.60
2022-10-25T02:13:35.462Z,2.50
2022-10-25T02:14:35.457Z,2.50
2022-10-25T02:15:35.458Z,2.90
2022-10-25T02:16:35.505Z,3.10
2022-10-25T02:17:35.386Z,2.60
2022-10-25T02:18:35.463Z,2.70
2022-10-25T02:19:35.465Z,2.90
2022-10-25T02:20:35.456Z,2.50
2022-10-25T02:21:35.494Z,2.70
2022-10-25T02:22:35.562Z,2.60
2022-10-25T02:23:35.382Z,3.20
2022-10-25T02:24:35.334Z,2.40
2022-10-25T02:25:35.331Z,2.60
2022-10-25T02:26:35.405Z,2.80
2022-10-25T02:27:35.336Z,2.80
2022-10-25T02:28:35.350Z,2.80
2022-10-25T02:29:35.423Z,2.70
2022-10-25T02:30:35.386Z,3.00
2022-10-25T02:31:35.272Z,2.80
2022-10-25T02:32:35.370Z,2.80
2022-10-25T02:33:35.381Z,2.80
2022-10-25T02:34:35.285Z,2.60
2022-10-25T02:35:35.293Z,2.90
2022-10-25T02:36:35.230Z,3.10
2022-10-25T02:37:35.213Z,2.70
2022-10-25T02:38:35.224Z,3.00
2022-10-25T02:39:35.233Z,2.90
2022-10-25T02:40:35.205Z,2.80
2022-10-25T02:41:35.172Z,3.60
2022-10-25T02:45:46.991Z,3.00
2022-10-25T02:46:48.077Z,2.90
2022-10-25T02:47:48.484Z,3.40
2022-10-25T02:48:48.010Z,3.10
2022-10-25T02:49:48.023Z,3.10
2022-10-25T02:50:48.006Z,2.90
2022-10-25T02:51:47.982Z,2.90
2022-10-25T02:52:48.243Z,2.80
2022-10-25T02:53:47.946Z,2.60
2022-10-25T02:54:47.956Z,3.00
2022-10-25T02:55:47.955Z,2.80
2022-10-25T02:56:47.918Z,2.30
2022-10-25T02:57:47.913Z,3.20
2022-10-25T02:58:48.918Z,3.30
2022-10-25T02:59:47.900Z,2.50
2022-10-25T03:00:47.945Z,2.80
2022-10-25T03:01:47.905Z,3.00
2022-10-25T03:02:48.338Z,2.70
2022-10-25T03:03:47.871Z,3.60
2022-10-25T03:04:47.953Z,3.00
2022-10-25T03:05:47.996Z,2.90
2022-10-25T03:06:47.835Z,2.90
2022-10-25T03:07:47.858Z,3.00
2022-10-25T03:08:47.824Z,3.00
2022-10-25T03:09:47.859Z,2.50
2022-10-25T03:10:47.925Z,2.50
2022-10-25T03:11:47.821Z,2.70
2022-10-25T03:12:48.012Z,2.80
2022-10-25T03:13:47.917Z,2.90
2022-10-25T03:14:47.831Z,2.90
2022-10-25T03:15:47.784Z,2.70
2022-10-25T03:17:48.990Z,2.70
2022-10-25T03:18:47.826Z,2.90
2022-10-25T03:19:47.760Z,2.90
2022-10-25T03:20:47.758Z,2.60
2022-10-25T03:21:47.765Z,2.80
2022-10-25T03:22:47.785Z,2.80
2022-10-25T03:23:47.726Z,2.60
2022-10-25T03:24:47.782Z,3.00
2022-10-25T03:25:49.707Z,4.60
2022-10-25T03:26:47.702Z,2.60
2022-10-25T03:27:47.965Z,2.20
2022-10-25T03:28:47.674Z,2.60
2022-10-25T03:29:47.684Z,2.50
2022-10-25T03:30:47.693Z,3.30
2022-10-25T03:31:47.779Z,2.40
2022-10-25T03:32:47.702Z,2.50
2022-10-25T03:33:47.681Z,2.60
2022-10-25T03:34:47.619Z,2.70
2022-10-25T03:35:47.626Z,2.50
2022-10-25T03:36:47.665Z,2.70
2022-10-25T03:37:47.895Z,2.40
2022-10-25T03:38:47.633Z,2.80
2022-10-25T03:39:47.615Z,2.80
2022-10-25T03:40:47.930Z,3.00
2022-10-25T03:41:47.599Z,2.50
2022-10-25T03:42:47.599Z,2.50
2022-10-25T03:43:47.574Z,2.70
2022-10-25T03:44:47.591Z,3.00
2022-10-25T03:45:47.576Z,2.60
2022-10-25T03:46:47.536Z,2.40
2022-10-25T03:47:47.789Z,2.40
2022-10-25T03:48:47.544Z,2.90
2022-10-25T03:49:47.549Z,2.90
2022-10-25T03:50:47.505Z,2.50
2022-10-25T03:51:50.090Z,2.30
2022-10-25T03:52:47.684Z,3.10
2022-10-25T03:53:47.482Z,3.00
2022-10-25T03:54:47.512Z,3.00
2022-10-25T03:55:47.499Z,2.70
2022-10-25T03:56:47.479Z,2.60
2022-10-25T03:57:47.849Z,2.70
2022-10-25T03:58:47.457Z,2.70
2022-10-25T03:59:47.440Z,2.50
2022-10-25T04:00:47.514Z,2.70
2022-10-25T04:01:47.672Z,2.50
2022-10-25T04:02:47.477Z,2.50
2022-10-25T04:03:47.414Z,2.60
2022-10-25T04:04:47.414Z,3.20
2022-10-25T04:05:47.415Z,3.30
2022-10-25T04:06:47.407Z,2.50
2022-10-25T04:07:47.846Z,2.90
2022-10-25T04:08:47.383Z,2.50
2022-10-25T04:09:47.397Z,2.40
2022-10-25T04:10:47.399Z,2.70
2022-10-25T04:11:47.398Z,3.20
2022-10-25T04:12:47.393Z,2.80
2022-10-25T04:13:47.341Z,2.70
2022-10-25T04:14:47.344Z,2.80
2022-10-25T04:15:47.354Z,3.40
2022-10-25T04:16:47.403Z,2.70
2022-10-25T04:17:47.558Z,2.60
2022-10-25T04:18:47.325Z,2.40
2022-10-25T04:19:47.304Z,2.60
2022-10-25T04:20:47.412Z,2.90
2022-10-25T04:21:47.527Z,2.50
2022-10-25T04:22:47.427Z,2.80
2022-10-25T04:23:47.271Z,2.60
2022-10-25T04:24:47.268Z,2.40
2022-10-25T04:25:47.301Z,2.40
2022-10-25T04:26:47.249Z,3.20
2022-10-25T04:27:47.513Z,3.00
2022-10-25T04:28:47.224Z,2.90
2022-10-25T04:29:47.248Z,2.50
2022-10-25T04:30:47.228Z,2.70
2022-10-25T04:31:47.344Z,2.80
2022-10-25T04:32:47.566Z,2.60
2022-10-25T04:33:48.905Z,3.70
2022-10-25T04:34:47.215Z,2.50
2022-10-25T04:35:47.176Z,2.80
2022-10-25T04:36:47.209Z,2.50
2022-10-25T04:37:47.287Z,2.80
2022-10-25T04:38:47.262Z,2.90
2022-10-25T04:39:47.225Z,2.70
2022-10-25T04:40:47.230Z,2.80
2022-10-25T04:41:47.147Z,2.90
2022-10-25T04:42:47.394Z,2.70
2022-10-25T04:43:47.152Z,2.30
2022-10-25T04:44:47.153Z,3.40
2022-10-25T04:45:47.132Z,2.80
2022-10-25T04:46:48.841Z,2.60
2022-10-25T04:47:47.115Z,2.90
2022-10-25T04:48:47.093Z,2.80
2022-10-25T04:49:47.073Z,2.80
2022-10-25T04:50:47.079Z,3.00
2022-10-25T04:51:47.191Z,2.90
2022-10-25T04:52:47.389Z,2.70
2022-10-25T04:53:47.050Z,3.00
2022-10-25T04:54:47.051Z,3.30
2022-10-25T04:55:47.046Z,2.80
2022-10-25T04:56:47.170Z,2.70
2022-10-25T04:57:47.076Z,2.60
2022-10-25T04:58:47.001Z,2.60
2022-10-25T04:59:46.997Z,3.00
2022-10-25T05:00:46.989Z,2.70
2022-10-25T05:01:47.058Z,2.80
2022-10-25T05:02:47.250Z,2.60
2022-10-25T05:03:46.973Z,2.50
2022-10-25T05:04:46.965Z,3.30
2022-10-25T05:05:46.968Z,3.00
2022-10-25T05:06:46.983Z,2.50
2022-10-25T05:07:46.977Z,2.50
2022-10-25T05:08:46.963Z,2.90
2022-10-25T05:09:47.812Z,2.60
2022-10-25T05:10:46.923Z,2.70
2022-10-25T05:11:46.937Z,2.70
2022-10-25T05:12:47.267Z,2.60
2022-10-25T05:13:46.899Z,2.70
2022-10-25T05:14:47.006Z,2.60
2022-10-25T05:15:46.921Z,3.10
2022-10-25T05:16:46.873Z,2.90
2022-10-25T05:17:46.946Z,2.60
2022-10-25T05:18:46.880Z,2.70
2022-10-25T05:19:46.877Z,2.50
2022-10-25T05:20:46.859Z,2.50
2022-10-25T05:21:46.869Z,2.90
2022-10-25T05:22:47.007Z,2.80
2022-10-25T05:23:46.840Z,2.60
2022-10-25T05:24:46.906Z,2.90
2022-10-25T05:25:46.807Z,2.90
2022-10-25T05:26:46.809Z,2.90
2022-10-25T05:27:46.787Z,3.00
2022-10-25T05:28:46.813Z,3.40
2022-10-25T05:29:46.787Z,3.00
2022-10-25T05:30:47.296Z,2.60
2022-10-25T05:31:46.793Z,3.20
2022-10-25T05:32:47.024Z,3.00
2022-10-25T05:33:46.775Z,3.40
2022-10-25T05:34:46.732Z,2.90
2022-10-25T05:35:46.764Z,2.90
2022-10-25T05:36:46.760Z,3.20
2022-10-25T05:37:46.860Z,3.40
2022-10-25T05:38:46.711Z,2.90
2022-10-25T05:39:46.716Z,3.60
2022-10-25T05:40:46.742Z,3.50
2022-10-25T05:41:46.732Z,2.90
2022-10-25T05:42:46.964Z,3.40
2022-10-25T05:43:46.688Z,3.50
2022-10-25T05:44:46.664Z,3.30
2022-10-25T05:45:46.650Z,3.00
2022-10-25T05:46:46.712Z,3.20
2022-10-25T05:47:46.664Z,3.60
2022-10-25T05:48:49.006Z,3.40
2022-10-25T05:49:47.635Z,3.70
2022-10-25T05:50:46.794Z,3.60
2022-10-25T05:51:46.648Z,3.80
2022-10-25T05:52:46.892Z,3.60
2022-10-25T05:53:46.606Z,3.50
2022-10-25T05:54:46.574Z,4.50
2022-10-25T05:55:46.679Z,3.50
2022-10-25T05:56:46.576Z,3.70
2022-10-25T05:57:46.638Z,3.80
2022-10-25T05:58:46.552Z,4.00
2022-10-25T05:59:46.559Z,3.80
2022-10-25T06:00:46.555Z,3.80
2022-10-25T06:01:46.787Z,3.20
2022-10-25T06:02:46.959Z,3.90
2022-10-25T06:03:46.532Z,3.80
2022-10-25T06:04:51.547Z,3.80
2022-10-25T06:05:48.642Z,3.40
2022-10-25T06:06:46.487Z,3.60
2022-10-25T06:07:46.592Z,3.50
2022-10-25T06:08:46.485Z,3.50
2022-10-25T06:09:46.781Z,3.30
2022-10-25T06:11:46.513Z,3.70
2022-10-25T06:12:46.718Z,3.80
2022-10-25T06:13:46.483Z,4.00
2022-10-25T06:14:46.487Z,3.90
2022-10-25T06:15:46.439Z,3.90
2022-10-25T06:16:46.553Z,3.70
2022-10-25T06:17:46.562Z,3.60
2022-10-25T06:18:46.408Z,4.10
2022-10-25T06:19:46.412Z,3.70
2022-10-25T06:20:46.371Z,4.20
2022-10-25T06:21:46.416Z,4.00
2022-10-25T06:22:46.657Z,3.80
2022-10-25T06:23:46.380Z,3.80
2022-10-25T06:24:46.400Z,3.10
2022-10-25T06:25:46.371Z,3.90
2022-10-25T06:26:46.363Z,3.40
2022-10-25T06:27:46.335Z,4.10
2022-10-25T06:28:46.341Z,4.00
2022-10-25T06:29:46.347Z,3.50
2022-10-25T06:30:46.385Z,3.70
2022-10-25T06:31:46.303Z,4.00
2022-10-25T06:32:46.659Z,3.50
2022-10-25T06:33:46.412Z,3.50
2022-10-25T06:34:46.339Z,4.20
2022-10-25T06:35:46.283Z,4.10
2022-10-25T06:36:46.327Z,4.10
2022-10-25T06:37:46.301Z,3.70
2022-10-25T06:38:46.247Z,4.10
2022-10-25T06:39:46.268Z,3.70
2022-10-25T06:40:46.257Z,3.50
2022-10-25T06:41:46.265Z,3.60
2022-10-25T06:42:46.450Z,3.60
2022-10-25T06:43:46.279Z,3.70
2022-10-25T06:44:47.237Z,4.00
2022-10-25T06:45:46.233Z,3.00
2022-10-25T06:47:15.867Z,3.70
2022-10-25T06:47:48.212Z,3.40
2022-10-25T06:48:46.195Z,3.30
2022-10-25T06:49:46.208Z,3.30
2022-10-25T06:50:48.547Z,2.80
2022-10-25T06:51:48.336Z,4.00
2022-10-25T06:52:46.464Z,3.70
2022-10-25T06:53:46.169Z,3.50
2022-10-25T06:54:47.155Z,3.30
2022-10-25T06:55:46.157Z,3.50
2022-10-25T06:56:46.133Z,3.10
2022-10-25T06:57:46.126Z,3.20
2022-10-25T06:58:46.243Z,3.50
2022-10-25T06:59:46.109Z,4.30
2022-10-25T07:00:48.879Z,3.60
2022-10-25T07:01:46.235Z,3.60
2022-10-25T07:02:46.499Z,3.80
2022-10-25T07:03:46.105Z,3.60
2022-10-25T07:04:46.060Z,3.80
2022-10-25T07:05:46.072Z,3.80
2022-10-25T07:06:48.777Z,4.60
2022-10-25T07:07:47.412Z,3.70
2022-10-25T07:08:47.141Z,3.60
2022-10-25T07:09:46.100Z,3.30
2022-10-25T07:10:46.008Z,3.50
2022-10-25T07:11:46.035Z,3.60
2022-10-25T07:12:46.076Z,3.00
2022-10-25T07:13:46.035Z,3.50
2022-10-25T07:14:45.997Z,3.60
2022-10-25T07:15:45.993Z,3.10
2022-10-25T07:16:46.107Z,3.10
2022-10-25T07:17:46.327Z,3.50
2022-10-25T07:18:45.988Z,3.40
2022-10-25T07:19:45.973Z,3.10
2022-10-25T07:20:45.955Z,3.10
2022-10-25T07:21:45.959Z,3.70
2022-10-25T07:22:46.012Z,3.40
2022-10-25T07:23:45.916Z,3.60
2022-10-25T07:24:45.931Z,3.10
2022-10-25T07:25:45.926Z,3.20
2022-10-25T07:26:45.995Z,2.90
2022-10-25T07:27:46.179Z,3.30
2022-10-25T07:28:45.874Z,3.80
2022-10-25T07:29:45.913Z,3.40
2022-10-25T07:30:45.860Z,3.00
2022-10-25T07:31:45.924Z,3.40
2022-10-25T07:32:45.871Z,3.30
2022-10-25T07:33:45.848Z,3.20
2022-10-25T07:34:45.914Z,3.00
2022-10-25T07:35:58.724Z,3.30
2022-10-25T07:36:47.820Z,3.20
2022-10-25T07:37:46.301Z,3.50
2022-10-25T07:38:45.821Z,3.20
2022-10-25T07:39:45.808Z,3.80
2022-10-25T07:40:45.795Z,3.10
2022-10-25T07:41:45.856Z,3.10
2022-10-25T07:42:45.791Z,3.70
2022-10-25T07:43:45.777Z,3.00
2022-10-25T07:45:46.749Z,2.90
2022-10-25T07:46:45.834Z,3.40
2022-10-25T07:47:46.110Z,3.10
2022-10-25T07:48:45.809Z,2.70
2022-10-25T07:49:45.714Z,2.80
2022-10-25T07:50:45.940Z,2.90
2022-10-25T07:51:45.720Z,3.20
2022-10-25T07:52:45.692Z,2.90
2022-10-25T07:53:45.691Z,2.80
2022-10-25T07:54:45.788Z,2.50
2022-10-25T07:55:45.705Z,2.80
2022-10-25T07:56:45.686Z,3.00
2022-10-25T07:57:45.948Z,2.50
2022-10-25T07:58:45.647Z,2.90
2022-10-25T07:59:45.614Z,2.50
2022-10-25T08:00:45.653Z,2.50
2022-10-25T08:01:45.667Z,2.70
2022-10-25T08:02:45.749Z,2.60
2022-10-25T08:03:45.730Z,2.40
2022-10-25T08:04:45.604Z,2.70
2022-10-25T08:05:45.579Z,3.20
2022-10-25T08:06:45.825Z,2.90
2022-10-25T08:07:45.836Z,2.20
2022-10-25T08:08:45.591Z,2.80
2022-10-25T08:09:45.584Z,2.40
2022-10-25T08:10:45.561Z,2.80
2022-10-25T08:11:45.613Z,2.70
2022-10-25T08:12:45.591Z,2.40
2022-10-25T08:13:45.549Z,3.10
2022-10-25T08:14:47.559Z,2.60
2022-10-25T08:15:45.521Z,2.60
2022-10-25T08:16:45.502Z,2.70
2022-10-25T08:17:45.966Z,3.10
2022-10-25T08:18:45.596Z,2.80
2022-10-25T08:19:50.165Z,2.60
2022-10-25T08:21:03.792Z,2.20
2022-10-25T08:21:47.486Z,2.60
2022-10-25T08:22:45.492Z,2.60
2022-10-25T08:23:45.474Z,2.50
2022-10-25T08:24:45.445Z,3.20
2022-10-25T08:25:46.449Z,2.60
2022-10-25T08:26:45.444Z,2.70
2022-10-25T08:27:45.726Z,2.80
2022-10-25T08:28:45.434Z,2.40
2022-10-25T08:29:45.442Z,2.30
2022-10-25T08:30:45.415Z,2.50
2022-10-25T08:31:45.386Z,2.90
2022-10-25T08:32:45.391Z,2.60
2022-10-25T08:33:46.392Z,2.90
2022-10-25T08:34:45.454Z,3.00
2022-10-25T08:35:45.363Z,2.20
2022-10-25T08:36:45.532Z,2.30
2022-10-25T08:37:45.830Z,2.80
2022-10-25T08:38:45.330Z,2.90
2022-10-25T08:39:45.398Z,2.80
2022-10-25T08:40:45.356Z,2.70
2022-10-25T08:41:45.300Z,3.00
2022-10-25T08:42:45.361Z,2.90
2022-10-25T08:43:45.308Z,2.20
2022-10-25T08:44:45.330Z,3.00
2022-10-25T08:45:47.137Z,3.00
2022-10-25T08:46:45.295Z,3.10
2022-10-25T08:47:45.614Z,2.80
2022-10-25T08:48:45.318Z,3.30
2022-10-25T08:49:45.244Z,2.60
2022-10-25T08:50:45.344Z,3.00
2022-10-25T08:51:45.263Z,2.90
2022-10-25T08:52:45.228Z,3.20
2022-10-25T08:53:45.264Z,3.00
2022-10-25T08:54:45.232Z,2.80
2022-10-25T08:57:03.421Z,2.70
2022-10-25T08:57:47.571Z,2.80
2022-10-25T08:58:45.223Z,2.90
2022-10-25T08:59:45.194Z,2.40
2022-10-25T09:00:45.851Z,2.30
2022-10-25T09:01:45.274Z,3.00
2022-10-25T09:02:45.201Z,2.70
2022-10-25T09:03:45.196Z,2.70
2022-10-25T09:04:45.150Z,2.30
2022-10-25T09:05:45.228Z,2.40
2022-10-25T09:06:45.108Z,2.30
2022-10-25T09:07:45.441Z,2.10
2022-10-25T09:08:45.190Z,2.30
2022-10-25T09:09:45.100Z,2.20
2022-10-25T09:10:45.170Z,2.40
2022-10-25T09:11:45.087Z,2.20
2022-10-25T09:12:45.129Z,2.30
2022-10-25T09:13:45.105Z,2.20
2022-10-25T09:14:45.058Z,2.40
2022-10-25T09:15:46.090Z,2.00
2022-10-25T09:16:45.441Z,2.20
2022-10-25T09:17:45.328Z,2.30
2022-10-25T09:18:45.047Z,2.50
2022-10-25T09:19:45.063Z,2.80
2022-10-25T09:20:45.053Z,2.70
2022-10-25T09:21:45.024Z,2.20
2022-10-25T09:22:46.037Z,2.20
2022-10-25T09:23:45.026Z,2.40
2022-10-25T09:24:45.049Z,2.20
2022-10-25T09:25:44.996Z,2.20
2022-10-25T09:26:45.014Z,2.20
2022-10-25T09:27:45.315Z,2.20
2022-10-25T09:28:44.960Z,2.30
2022-10-25T09:29:44.952Z,2.10
2022-10-25T09:30:44.954Z,1.90
2022-10-25T09:31:44.999Z,2.30
2022-10-25T09:32:44.951Z,2.20
2022-10-25T09:33:44.938Z,2.50
2022-10-25T09:34:44.933Z,2.70
2022-10-25T09:35:44.939Z,2.20
2022-10-25T09:36:44.939Z,2.20
2022-10-25T09:37:45.297Z,2.40
2022-10-25T09:38:45.043Z,2.30
2022-10-25T09:39:45.007Z,1.80
2022-10-25T09:40:47.618Z,1.90
2022-10-25T09:41:45.857Z,2.30
2022-10-25T09:42:46.023Z,2.20
2022-10-25T09:43:44.916Z,2.60
2022-10-25T09:44:44.874Z,2.30
2022-10-25T09:45:44.833Z,2.20
2022-10-25T09:46:44.880Z,2.20
2022-10-25T09:47:45.127Z,2.30
2022-10-25T09:48:44.809Z,2.40
2022-10-25T09:49:44.846Z,2.00
2022-10-25T09:50:44.903Z,2.10
2022-10-25T09:51:44.832Z,1.90
2022-10-25T09:52:44.817Z,2.20
2022-10-25T09:53:44.807Z,3.30
2022-10-25T09:54:44.819Z,2.10
2022-10-25T09:55:44.804Z,2.20
2022-10-25T09:56:44.765Z,2.10
2022-10-25T09:57:44.912Z,1.90
2022-10-25T09:58:44.767Z,2.20
2022-10-25T09:59:44.755Z,3.40
2022-10-25T10:00:44.768Z,2.40
2022-10-25T10:01:44.821Z,2.00
2022-10-25T10:02:44.784Z,2.00
2022-10-25T10:03:47.097Z,2.40
2022-10-25T10:04:45.766Z,2.20
2022-10-25T10:05:44.692Z,2.00
2022-10-25T10:06:45.693Z,1.90
2022-10-25T10:07:45.027Z,2.20
2022-10-25T10:08:44.702Z,1.90
2022-10-25T10:09:46.076Z,2.10
2022-10-25T10:10:45.665Z,2.10
2022-10-25T10:11:44.700Z,1.90
2022-10-25T10:12:44.694Z,2.40
2022-10-25T10:13:44.670Z,2.60
2022-10-25T10:14:44.655Z,2.50
2022-10-25T10:15:44.643Z,2.00
2022-10-25T10:16:44.641Z,2.30
2022-10-25T10:17:44.798Z,1.80
2022-10-25T10:18:44.672Z,2.30
2022-10-25T10:19:44.642Z,2.50
2022-10-25T10:20:44.581Z,2.20
2022-10-25T10:21:44.567Z,2.10
2022-10-25T10:22:44.614Z,2.30
2022-10-25T10:23:44.611Z,2.50
2022-10-25T10:24:45.557Z,2.80
2022-10-25T10:25:44.595Z,2.50
2022-10-25T10:26:44.551Z,2.20
2022-10-25T10:27:44.926Z,2.60
2022-10-25T10:28:44.536Z,2.20
2022-10-25T10:29:44.591Z,1.90
2022-10-25T10:30:44.534Z,1.90
2022-10-25T10:31:44.563Z,2.40
2022-10-25T10:32:44.513Z,2.20
2022-10-25T10:33:44.488Z,2.40
2022-10-25T10:34:44.487Z,1.90
2022-10-25T10:35:44.553Z,2.00
2022-10-25T10:36:44.491Z,2.30
2022-10-25T10:37:44.708Z,2.20
2022-10-25T10:38:44.470Z,1.60
2022-10-25T10:39:44.441Z,2.10
2022-10-25T10:40:47.889Z,1.60
2022-10-25T10:41:46.435Z,1.90
2022-10-25T10:42:44.525Z,1.90
2022-10-25T10:43:44.416Z,1.90
2022-10-25T10:44:44.437Z,2.20
2022-10-25T10:45:44.479Z,1.90
2022-10-25T10:46:44.404Z,2.10
2022-10-25T10:47:44.426Z,2.10
2022-10-25T10:48:44.373Z,2.40
2022-10-25T10:49:44.385Z,2.20
2022-10-25T10:50:47.022Z,2.30
2022-10-25T10:51:45.610Z,1.80
2022-10-25T10:52:44.478Z,2.40
2022-10-25T10:53:44.388Z,2.40
2022-10-25T10:54:44.377Z,2.50
2022-10-25T10:55:44.388Z,2.20
2022-10-25T10:56:44.485Z,2.60
2022-10-25T10:57:44.360Z,2.30
2022-10-25T10:58:44.333Z,2.20
2022-10-25T10:59:44.353Z,2.30
2022-10-25T11:00:44.299Z,2.20
2022-10-25T11:01:44.514Z,2.00
2022-10-25T11:02:44.449Z,2.20
2022-10-25T11:03:53.974Z,2.00
2022-10-25T11:04:46.278Z,1.60
2022-10-25T11:05:44.298Z,2.10
2022-10-25T11:06:44.279Z,2.00
2022-10-25T11:07:44.558Z,2.40
2022-10-25T11:08:44.251Z,2.30
2022-10-25T11:09:44.235Z,2.00
2022-10-25T11:10:44.219Z,1.70
2022-10-25T11:11:44.229Z,1.80
2022-10-25T11:12:44.372Z,1.80
2022-10-25T11:13:44.282Z,1.90
2022-10-25T11:14:44.279Z,2.10
2022-10-25T11:15:44.314Z,1.80
2022-10-25T11:16:44.251Z,2.00
2022-10-25T11:17:44.333Z,1.90
2022-10-25T11:18:44.206Z,1.80
2022-10-25T11:19:44.153Z,1.80
2022-10-25T11:20:44.284Z,1.90
2022-10-25T11:21:44.212Z,2.40
2022-10-25T11:22:44.233Z,2.00
2022-10-25T11:23:44.196Z,1.70
2022-10-25T11:24:44.191Z,2.00
2022-10-25T11:25:44.169Z,1.70
2022-10-25T11:26:44.169Z,1.80
2022-10-25T11:27:44.181Z,2.00
2022-10-25T11:28:44.130Z,2.00
2022-10-25T11:29:44.193Z,1.70
2022-10-25T11:30:44.113Z,1.80
2022-10-25T11:31:44.072Z,1.90
2022-10-25T11:32:46.409Z,1.80
2022-10-25T11:33:44.133Z,2.20
2022-10-25T11:34:44.134Z,1.80
2022-10-25T11:35:44.139Z,2.00
2022-10-25T11:36:44.167Z,1.90
2022-10-25T11:37:44.248Z,2.10
2022-10-25T11:38:44.022Z,1.90
2022-10-25T11:39:48.153Z,1.90
2022-10-25T11:40:45.045Z,1.90
2022-10-25T11:41:45.012Z,1.80
2022-10-25T11:42:44.460Z,1.90
2022-10-25T11:43:44.168Z,2.00
2022-10-25T11:44:46.405Z,2.00
2022-10-25T11:45:45.119Z,2.00
2022-10-25T11:46:43.984Z,2.10
2022-10-25T11:47:43.986Z,2.00
2022-10-25T11:48:43.968Z,1.90
2022-10-25T11:49:43.948Z,2.10
2022-10-25T11:50:43.938Z,2.00
2022-10-25T11:51:44.045Z,2.00
2022-10-25T11:52:44.115Z,1.90
2022-10-25T11:53:43.967Z,1.70
2022-10-25T11:54:43.939Z,2.20
2022-10-25T11:55:43.934Z,1.80
2022-10-25T11:56:43.943Z,1.80
2022-10-25T11:57:43.899Z,2.10
2022-10-25T11:58:43.913Z,1.90
2022-10-25T11:59:44.098Z,1.80
2022-10-25T12:00:44.721Z,1.70
2022-10-25T12:01:43.982Z,1.90
2022-10-25T12:02:43.914Z,1.70
2022-10-25T12:03:43.848Z,1.80
2022-10-25T12:04:43.887Z,1.50
2022-10-25T12:05:43.862Z,1.60
2022-10-25T12:06:43.978Z,2.00
2022-10-25T12:07:43.862Z,1.70
2022-10-25T12:08:43.834Z,1.70
2022-10-25T12:09:43.831Z,2.00
2022-10-25T12:10:43.852Z,2.60
2022-10-25T12:11:43.873Z,2.10
2022-10-25T12:12:44.432Z,1.70
2022-10-25T12:13:43.841Z,2.00
2022-10-25T12:14:43.965Z,1.80
2022-10-25T12:15:43.857Z,2.10
2022-10-25T12:16:43.805Z,2.00
2022-10-25T12:17:43.782Z,1.80
2022-10-25T12:18:43.809Z,2.20
2022-10-25T12:19:43.752Z,2.00
2022-10-25T12:20:43.772Z,1.70
2022-10-25T12:21:43.859Z,2.10
2022-10-25T12:22:43.777Z,1.80
2022-10-25T12:23:43.902Z,2.70
2022-10-25T12:24:43.756Z,1.70
2022-10-25T12:25:43.699Z,1.90
2022-10-25T12:26:43.734Z,1.70
2022-10-25T12:27:43.738Z,1.80
2022-10-25T12:28:43.881Z,2.00
2022-10-25T12:29:43.807Z,1.80
2022-10-25T12:30:43.776Z,1.90
2022-10-25T12:31:43.742Z,1.90
2022-10-25T12:32:43.807Z,1.70
2022-10-25T12:33:43.905Z,1.90
2022-10-25T12:34:43.676Z,2.00
2022-10-25T12:35:43.639Z,2.70
2022-10-25T12:36:43.653Z,1.80
2022-10-25T12:37:46.128Z,1.80
2022-10-25T12:38:44.621Z,1.60
2022-10-25T12:39:43.649Z,1.70
2022-10-25T12:40:43.624Z,1.90
2022-10-25T12:41:43.684Z,1.70
2022-10-25T12:42:43.627Z,1.70
2022-10-25T12:43:43.619Z,1.60
2022-10-25T12:44:43.617Z,2.00
2022-10-25T12:45:43.659Z,1.60
2022-10-25T12:46:43.619Z,1.40
2022-10-25T12:47:43.664Z,1.80
2022-10-25T12:48:43.569Z,1.70
2022-10-25T12:49:43.626Z,1.70
2022-10-25T12:50:43.538Z,1.70
2022-10-25T12:51:43.566Z,1.60
2022-10-25T12:52:43.572Z,1.40
2022-10-25T12:53:43.630Z,2.70
2022-10-25T12:54:43.505Z,1.60
2022-10-25T12:55:43.522Z,1.60
2022-10-25T12:56:43.522Z,2.10
2022-10-25T12:57:47.589Z,1.60
2022-10-25T12:58:45.490Z,1.50
2022-10-25T12:59:43.810Z,1.90
2022-10-25T13:00:43.503Z,1.60
2022-10-25T13:01:43.682Z,1.60
2022-10-25T13:02:43.530Z,1.80
2022-10-25T13:03:43.680Z,1.80
2022-10-25T13:04:43.496Z,1.80
2022-10-25T13:05:43.427Z,1.50
2022-10-25T13:06:43.555Z,1.50
2022-10-25T13:07:43.588Z,1.50
2022-10-25T13:08:43.443Z,1.60
2022-10-25T13:09:43.415Z,1.60
2022-10-25T13:10:43.614Z,1.70
2022-10-25T13:11:43.818Z,1.10
2022-10-25T13:12:43.400Z,2.00
2022-10-25T13:13:43.398Z,1.30
2022-10-25T13:14:43.472Z,1.70
2022-10-25T13:15:43.387Z,1.30
2022-10-25T13:16:43.477Z,1.30
2022-10-25T13:17:44.137Z,1.30
2022-10-25T13:18:43.485Z,1.20
2022-10-25T13:19:54.086Z,1.20
2022-10-25T13:20:45.341Z,1.70
2022-10-25T13:21:43.421Z,1.20
2022-10-25T13:22:43.338Z,1.60
2022-10-25T13:23:43.373Z,1.40
2022-10-25T13:24:43.399Z,1.40
2022-10-25T13:25:43.326Z,1.50
2022-10-25T13:26:43.362Z,1.60